sensor_id;sensor_type;location;lat;lon;timestamp;P1;durP1;ratioP1;P2;durP2;ratioP2
2386;SDS011;49473;50.772;8.768;2022-07-31T00:01:48;5.70;;;5.30;;
2386;SDS011;49473;50.772;8.768;2022-07-31T00:04:15;5.83;;;5.33;;
2386;SDS011;49473;50.772;8.768;2022-07-31T00:06:42;5.20;;;4.90;;
2386;SDS011;49473;50.772;8.768;2022-07-31T00:09:10;6.43;;;5.83;;
2386;SDS011;49473;50.772;8.768;2022-07-31T00:11:38;6.10;;;5.00;;
2386;SDS011;49473;50.772;8.768;2022-07-31T00:14:05;5.50;;;5.10;;
2386;SDS011;49473;50.772;8.768;2022-07-31T00:16:32;5.30;;;5.00;;
2386;SDS011;49473;50.772;8.768;2022-07-31T00:18:59;5.03;;;4.73;;
2386;SDS011;49473;50.772;8.768;2022-07-31T00:21:26;5.23;;;4.87;;
2386;SDS011;49473;50.772;8.768;2022-07-31T00:23:53;5.43;;;5.03;;
2386;SDS011;49473;50.772;8.768;2022-07-31T00:26:21;4.73;;;4.43;;
2386;SDS011;49473;50.772;8.768;2022-07-31T00:28:48;5.23;;;4.83;;
2386;SDS011;49473;50.772;8.768;2022-07-31T00:31:14;5.43;;;5.03;;
2386;SDS011;49473;50.772;8.768;2022-07-31T00:33:42;5.50;;;5.03;;
2386;SDS011;49473;50.772;8.768;2022-07-31T00:36:09;5.37;;;4.97;;
2386;SDS011;49473;50.772;8.768;2022-07-31T00:38:35;4.60;;;4.30;;
2386;SDS011;49473;50.772;8.768;2022-07-31T00:41:02;5.47;;;5.07;;
2386;SDS011;49473;50.772;8.768;2022-07-31T00:43:31;5.30;;;4.90;;
2386;SDS011;49473;50.772;8.768;2022-07-31T00:45:57;4.90;;;4.50;;
2386;SDS011;49473;50.772;8.768;2022-07-31T00:48:25;4.90;;;4.50;;
2386;SDS011;49473;50.772;8.768;2022-07-31T00:50:52;5.23;;;4.77;;
2386;SDS011;49473;50.772;8.768;2022-07-31T00:53:18;5.50;;;5.00;;
2386;SDS011;49473;50.772;8.768;2022-07-31T00:55:45;6.93;;;5.97;;
2386;SDS011;49473;50.772;8.768;2022-07-31T00:58:12;6.23;;;5.73;;
2386;SDS011;49473;50.772;8.768;2022-07-31T01:00:40;5.93;;;5.57;;
2386;SDS011;49473;50.772;8.768;2022-07-31T01:03:07;5.00;;;4.70;;
2386;SDS011;49473;50.772;8.768;2022-07-31T01:05:33;4.80;;;4.40;;
2386;SDS011;49473;50.772;8.768;2022-07-31T01:08:00;5.50;;;4.90;;
2386;SDS011;49473;50.772;8.768;2022-07-31T01:10:30;5.10;;;4.60;;
2386;SDS011;49473;50.772;8.768;2022-07-31T01:13:09;5.30;;;4.90;;
2386;SDS011;49473;50.772;8.768;2022-07-31T01:15:43;4.20;;;4.00;;
2386;SDS011;49473;50.772;8.768;2022-07-31T01:18:11;6.10;;;5.70;;
2386;SDS011;49473;50.772;8.768;2022-07-31T01:20:40;7.67;;;6.93;;
2386;SDS011;49473;50.772;8.768;2022-07-31T01:23:25;8.80;;;7.90;;
2386;SDS011;49473;50.772;8.768;2022-07-31T01:26:09;8.23;;;7.43;;
2386;SDS011;49473;50.772;8.768;2022-07-31T01:28:48;9.03;;;7.53;;
2386;SDS011;49473;50.772;8.768;2022-07-31T01:31:26;8.37;;;7.47;;
2386;SDS011;49473;50.772;8.768;2022-07-31T01:34:01;8.63;;;7.33;;
2386;SDS011;49473;50.772;8.768;2022-07-31T01:36:33;14.77;;;7.90;;
2386;SDS011;49473;50.772;8.768;2022-07-31T01:39:04;8.40;;;7.43;;
2386;SDS011;49473;50.772;8.768;2022-07-31T01:41:32;8.60;;;7.80;;
2386;SDS011;49473;50.772;8.768;2022-07-31T01:44:04;8.90;;;7.50;;
2386;SDS011;49473;50.772;8.768;2022-07-31T01:46:33;9.53;;;7.70;;
2386;SDS011;49473;50.772;8.768;2022-07-31T01:49:01;9.03;;;8.13;;
2386;SDS011;49473;50.772;8.768;2022-07-31T01:51:29;8.80;;;7.90;;
2386;SDS011;49473;50.772;8.768;2022-07-31T01:53:56;8.03;;;7.23;;
2386;SDS011;49473;50.772;8.768;2022-07-31T01:56:26;8.50;;;7.57;;
2386;SDS011;49473;50.772;8.768;2022-07-31T01:58:55;9.93;;;7.40;;
2386;SDS011;49473;50.772;8.768;2022-07-31T02:01:25;10.83;;;7.17;;
2386;SDS011;49473;50.772;8.768;2022-07-31T02:03:53;10.30;;;8.13;;
2386;SDS011;49473;50.772;8.768;2022-07-31T02:06:21;7.83;;;7.03;;
2386;SDS011;49473;50.772;8.768;2022-07-31T02:08:50;9.03;;;7.10;;
2386;SDS011;49473;50.772;8.768;2022-07-31T02:11:19;7.77;;;6.97;;
2386;SDS011;49473;50.772;8.768;2022-07-31T02:13:46;8.60;;;7.27;;
2386;SDS011;49473;50.772;8.768;2022-07-31T02:16:15;10.20;;;8.47;;
2386;SDS011;49473;50.772;8.768;2022-07-31T02:18:45;8.27;;;7.33;;
2386;SDS011;49473;50.772;8.768;2022-07-31T02:21:13;8.67;;;7.87;;
2386;SDS011;49473;50.772;8.768;2022-07-31T02:23:40;7.80;;;7.00;;
2386;SDS011;49473;50.772;8.768;2022-07-31T02:26:07;8.20;;;7.40;;
2386;SDS011;49473;50.772;8.768;2022-07-31T02:28:35;8.00;;;7.20;;
2386;SDS011;49473;50.772;8.768;2022-07-31T02:31:05;4.47;;;4.07;;
2386;SDS011;49473;50.772;8.768;2022-07-31T02:33:36;4.87;;;4.57;;
2386;SDS011;49473;50.772;8.768;2022-07-31T02:36:05;5.20;;;4.80;;
2386;SDS011;49473;50.772;8.768;2022-07-31T02:38:33;5.00;;;4.70;;
2386;SDS011;49473;50.772;8.768;2022-07-31T02:41:02;5.63;;;5.23;;
2386;SDS011;49473;50.772;8.768;2022-07-31T02:43:30;4.70;;;4.40;;
2386;SDS011;49473;50.772;8.768;2022-07-31T02:45:59;5.77;;;5.33;;
2386;SDS011;49473;50.772;8.768;2022-07-31T02:48:27;4.60;;;4.30;;
2386;SDS011;49473;50.772;8.768;2022-07-31T02:50:54;5.07;;;4.77;;
2386;SDS011;49473;50.772;8.768;2022-07-31T02:53:23;4.60;;;4.30;;
2386;SDS011;49473;50.772;8.768;2022-07-31T02:55:51;5.10;;;4.80;;
2386;SDS011;49473;50.772;8.768;2022-07-31T02:58:18;6.27;;;5.87;;
2386;SDS011;49473;50.772;8.768;2022-07-31T03:00:45;6.57;;;6.00;;
2386;SDS011;49473;50.772;8.768;2022-07-31T03:03:12;5.27;;;4.97;;
2386;SDS011;49473;50.772;8.768;2022-07-31T03:05:39;4.57;;;4.27;;
2386;SDS011;49473;50.772;8.768;2022-07-31T03:08:05;4.63;;;4.30;;
2386;SDS011;49473;50.772;8.768;2022-07-31T03:10:34;4.37;;;4.07;;
2386;SDS011;49473;50.772;8.768;2022-07-31T03:13:00;6.00;;;5.50;;
2386;SDS011;49473;50.772;8.768;2022-07-31T03:15:29;4.80;;;4.43;;
2386;SDS011;49473;50.772;8.768;2022-07-31T03:17:56;4.93;;;4.63;;
2386;SDS011;49473;50.772;8.768;2022-07-31T03:20:24;5.97;;;5.57;;
2386;SDS011;49473;50.772;8.768;2022-07-31T03:22:52;8.23;;;7.53;;
2386;SDS011;49473;50.772;8.768;2022-07-31T03:25:19;4.97;;;4.57;;
2386;SDS011;49473;50.772;8.768;2022-07-31T03:27:47;4.73;;;4.37;;
2386;SDS011;49473;50.772;8.768;2022-07-31T03:30:15;4.80;;;4.50;;
2386;SDS011;49473;50.772;8.768;2022-07-31T03:32:48;5.20;;;4.80;;
2386;SDS011;49473;50.772;8.768;2022-07-31T03:35:16;4.80;;;4.40;;
2386;SDS011;49473;50.772;8.768;2022-07-31T03:37:43;6.00;;;4.50;;
2386;SDS011;49473;50.772;8.768;2022-07-31T03:40:10;4.63;;;4.33;;
2386;SDS011;49473;50.772;8.768;2022-07-31T03:42:37;5.50;;;5.00;;
2386;SDS011;49473;50.772;8.768;2022-07-31T03:45:06;5.50;;;5.10;;
2386;SDS011;49473;50.772;8.768;2022-07-31T03:47:35;5.10;;;4.80;;
2386;SDS011;49473;50.772;8.768;2022-07-31T03:50:03;5.13;;;4.67;;
2386;SDS011;49473;50.772;8.768;2022-07-31T03:52:31;4.53;;;4.27;;
2386;SDS011;49473;50.772;8.768;2022-07-31T03:54:58;4.97;;;4.67;;
2386;SDS011;49473;50.772;8.768;2022-07-31T03:57:25;5.00;;;4.63;;
2386;SDS011;49473;50.772;8.768;2022-07-31T03:59:53;5.40;;;4.90;;
2386;SDS011;49473;50.772;8.768;2022-07-31T04:02:25;6.10;;;5.70;;
2386;SDS011;49473;50.772;8.768;2022-07-31T04:04:51;5.70;;;5.40;;
2386;SDS011;49473;50.772;8.768;2022-07-31T04:07:18;5.33;;;5.03;;
2386;SDS011;49473;50.772;8.768;2022-07-31T04:09:45;4.80;;;4.50;;
2386;SDS011;49473;50.772;8.768;2022-07-31T04:12:12;5.50;;;5.03;;
2386;SDS011;49473;50.772;8.768;2022-07-31T04:14:39;5.17;;;4.77;;
2386;SDS011;49473;50.772;8.768;2022-07-31T04:17:06;5.77;;;5.27;;
2386;SDS011;49473;50.772;8.768;2022-07-31T04:19:34;6.00;;;5.67;;
2386;SDS011;49473;50.772;8.768;2022-07-31T04:22:01;5.60;;;5.30;;
2386;SDS011;49473;50.772;8.768;2022-07-31T04:24:28;7.13;;;6.53;;
2386;SDS011;49473;50.772;8.768;2022-07-31T04:26:55;4.67;;;4.37;;
2386;SDS011;49473;50.772;8.768;2022-07-31T04:29:23;5.00;;;4.53;;
2386;SDS011;49473;50.772;8.768;2022-07-31T04:31:52;4.70;;;4.40;;
2386;SDS011;49473;50.772;8.768;2022-07-31T04:34:19;4.77;;;4.47;;
2386;SDS011;49473;50.772;8.768;2022-07-31T04:36:47;5.00;;;4.70;;
2386;SDS011;49473;50.772;8.768;2022-07-31T04:39:14;4.33;;;4.03;;
2386;SDS011;49473;50.772;8.768;2022-07-31T04:41:41;5.60;;;5.30;;
2386;SDS011;49473;50.772;8.768;2022-07-31T04:44:08;6.17;;;5.77;;
2386;SDS011;49473;50.772;8.768;2022-07-31T04:46:35;5.50;;;5.20;;
2386;SDS011;49473;50.772;8.768;2022-07-31T04:49:02;6.10;;;4.00;;
2386;SDS011;49473;50.772;8.768;2022-07-31T04:51:28;4.80;;;4.50;;
2386;SDS011;49473;50.772;8.768;2022-07-31T04:53:57;5.37;;;4.97;;
2386;SDS011;49473;50.772;8.768;2022-07-31T04:56:23;5.17;;;4.77;;
2386;SDS011;49473;50.772;8.768;2022-07-31T04:59:00;5.20;;;4.10;;
2386;SDS011;49473;50.772;8.768;2022-07-31T05:01:29;4.40;;;4.00;;
2386;SDS011;49473;50.772;8.768;2022-07-31T05:03:57;4.40;;;4.10;;
2386;SDS011;49473;50.772;8.768;2022-07-31T05:06:31;4.37;;;4.17;;
2386;SDS011;49473;50.772;8.768;2022-07-31T05:09:03;4.43;;;4.13;;
2386;SDS011;49473;50.772;8.768;2022-07-31T05:11:31;4.90;;;4.50;;
2386;SDS011;49473;50.772;8.768;2022-07-31T05:13:59;4.40;;;4.00;;
2386;SDS011;49473;50.772;8.768;2022-07-31T05:16:27;4.30;;;4.10;;
2386;SDS011;49473;50.772;8.768;2022-07-31T05:18:55;4.77;;;4.47;;
2386;SDS011;49473;50.772;8.768;2022-07-31T05:21:22;4.83;;;4.23;;
2386;SDS011;49473;50.772;8.768;2022-07-31T05:23:51;4.70;;;4.50;;
2386;SDS011;49473;50.772;8.768;2022-07-31T05:26:20;4.83;;;4.53;;
2386;SDS011;49473;50.772;8.768;2022-07-31T05:28:48;4.43;;;4.13;;
2386;SDS011;49473;50.772;8.768;2022-07-31T05:31:16;4.70;;;4.40;;
2386;SDS011;49473;50.772;8.768;2022-07-31T05:33:44;4.93;;;4.63;;
2386;SDS011;49473;50.772;8.768;2022-07-31T05:36:12;5.10;;;4.60;;
2386;SDS011;49473;50.772;8.768;2022-07-31T05:38:40;5.50;;;5.10;;
2386;SDS011;49473;50.772;8.768;2022-07-31T05:41:07;4.90;;;4.63;;
2386;SDS011;49473;50.772;8.768;2022-07-31T05:43:36;4.80;;;4.50;;
2386;SDS011;49473;50.772;8.768;2022-07-31T05:46:03;4.33;;;4.10;;
2386;SDS011;49473;50.772;8.768;2022-07-31T05:48:30;4.83;;;4.43;;
2386;SDS011;49473;50.772;8.768;2022-07-31T05:50:57;5.07;;;4.67;;
2386;SDS011;49473;50.772;8.768;2022-07-31T05:53:24;4.97;;;4.67;;
2386;SDS011;49473;50.772;8.768;2022-07-31T05:55:51;4.90;;;4.40;;
2386;SDS011;49473;50.772;8.768;2022-07-31T05:58:18;5.33;;;4.93;;
2386;SDS011;49473;50.772;8.768;2022-07-31T06:00:47;4.10;;;3.90;;
2386;SDS011;49473;50.772;8.768;2022-07-31T06:03:14;3.93;;;3.60;;
2386;SDS011;49473;50.772;8.768;2022-07-31T06:05:41;4.67;;;4.27;;
2386;SDS011;49473;50.772;8.768;2022-07-31T06:08:08;4.87;;;4.50;;
2386;SDS011;49473;50.772;8.768;2022-07-31T06:10:36;4.70;;;4.40;;
2386;SDS011;49473;50.772;8.768;2022-07-31T06:13:03;5.13;;;4.70;;
2386;SDS011;49473;50.772;8.768;2022-07-31T06:15:30;4.47;;;4.17;;
2386;SDS011;49473;50.772;8.768;2022-07-31T06:17:58;4.50;;;4.10;;
2386;SDS011;49473;50.772;8.768;2022-07-31T06:20:25;4.73;;;4.40;;
2386;SDS011;49473;50.772;8.768;2022-07-31T06:22:52;4.73;;;4.43;;
2386;SDS011;49473;50.772;8.768;2022-07-31T06:25:19;4.13;;;3.93;;
2386;SDS011;49473;50.772;8.768;2022-07-31T06:27:46;4.23;;;3.93;;
2386;SDS011;49473;50.772;8.768;2022-07-31T06:30:13;4.07;;;3.87;;
2386;SDS011;49473;50.772;8.768;2022-07-31T06:32:40;4.30;;;4.03;;
2386;SDS011;49473;50.772;8.768;2022-07-31T06:35:09;4.27;;;3.97;;
2386;SDS011;49473;50.772;8.768;2022-07-31T06:37:35;5.13;;;4.73;;
2386;SDS011;49473;50.772;8.768;2022-07-31T06:40:02;4.57;;;4.17;;
2386;SDS011;49473;50.772;8.768;2022-07-31T06:42:30;3.87;;;3.67;;
2386;SDS011;49473;50.772;8.768;2022-07-31T06:44:57;3.60;;;3.40;;
2386;SDS011;49473;50.772;8.768;2022-07-31T06:47:24;3.67;;;3.37;;
2386;SDS011;49473;50.772;8.768;2022-07-31T06:49:51;4.30;;;4.00;;
2386;SDS011;49473;50.772;8.768;2022-07-31T06:52:20;3.57;;;3.37;;
2386;SDS011;49473;50.772;8.768;2022-07-31T06:54:47;3.67;;;3.47;;
2386;SDS011;49473;50.772;8.768;2022-07-31T06:57:14;3.90;;;3.70;;
2386;SDS011;49473;50.772;8.768;2022-07-31T06:59:41;3.90;;;3.60;;
2386;SDS011;49473;50.772;8.768;2022-07-31T07:02:08;4.07;;;3.67;;
2386;SDS011;49473;50.772;8.768;2022-07-31T07:04:35;4.10;;;3.70;;
2386;SDS011;49473;50.772;8.768;2022-07-31T07:07:02;4.63;;;3.50;;
2386;SDS011;49473;50.772;8.768;2022-07-31T07:09:31;4.00;;;3.60;;
2386;SDS011;49473;50.772;8.768;2022-07-31T07:11:58;3.60;;;3.30;;
2386;SDS011;49473;50.772;8.768;2022-07-31T07:14:24;5.40;;;3.80;;
2386;SDS011;49473;50.772;8.768;2022-07-31T07:16:51;4.10;;;3.90;;
2386;SDS011;49473;50.772;8.768;2022-07-31T07:19:18;3.53;;;3.33;;
2386;SDS011;49473;50.772;8.768;2022-07-31T07:21:44;2.97;;;2.77;;
2386;SDS011;49473;50.772;8.768;2022-07-31T07:24:11;4.20;;;3.30;;
2386;SDS011;49473;50.772;8.768;2022-07-31T07:26:39;4.00;;;3.70;;
2386;SDS011;49473;50.772;8.768;2022-07-31T07:29:06;2.90;;;2.67;;
2386;SDS011;49473;50.772;8.768;2022-07-31T07:31:34;2.87;;;2.67;;
2386;SDS011;49473;50.772;8.768;2022-07-31T07:34:01;3.13;;;2.93;;
2386;SDS011;49473;50.772;8.768;2022-07-31T07:36:30;4.07;;;3.87;;
2386;SDS011;49473;50.772;8.768;2022-07-31T07:38:58;3.50;;;3.20;;
2386;SDS011;49473;50.772;8.768;2022-07-31T07:41:24;4.60;;;3.40;;
2386;SDS011;49473;50.772;8.768;2022-07-31T07:43:53;3.80;;;2.90;;
2386;SDS011;49473;50.772;8.768;2022-07-31T07:46:20;3.13;;;2.93;;
2386;SDS011;49473;50.772;8.768;2022-07-31T07:48:47;2.87;;;2.67;;
2386;SDS011;49473;50.772;8.768;2022-07-31T07:51:15;2.80;;;2.60;;
2386;SDS011;49473;50.772;8.768;2022-07-31T07:53:42;2.60;;;2.40;;
2386;SDS011;49473;50.772;8.768;2022-07-31T07:56:09;2.90;;;2.70;;
2386;SDS011;49473;50.772;8.768;2022-07-31T07:58:36;2.83;;;2.63;;
2386;SDS011;49473;50.772;8.768;2022-07-31T08:01:04;3.03;;;2.73;;
2386;SDS011;49473;50.772;8.768;2022-07-31T08:03:31;2.77;;;2.57;;
2386;SDS011;49473;50.772;8.768;2022-07-31T08:05:57;3.13;;;2.60;;
2386;SDS011;49473;50.772;8.768;2022-07-31T08:08:24;2.40;;;2.17;;
2386;SDS011;49473;50.772;8.768;2022-07-31T08:10:51;2.70;;;2.53;;
2386;SDS011;49473;50.772;8.768;2022-07-31T08:13:18;3.43;;;3.13;;
2386;SDS011;49473;50.772;8.768;2022-07-31T08:15:45;2.67;;;2.47;;
2386;SDS011;49473;50.772;8.768;2022-07-31T08:18:13;3.20;;;3.00;;
2386;SDS011;49473;50.772;8.768;2022-07-31T08:20:41;2.70;;;2.50;;
2386;SDS011;49473;50.772;8.768;2022-07-31T08:23:08;2.97;;;2.70;;
2386;SDS011;49473;50.772;8.768;2022-07-31T08:25:34;4.47;;;2.97;;
2386;SDS011;49473;50.772;8.768;2022-07-31T08:28:01;2.87;;;2.77;;
2386;SDS011;49473;50.772;8.768;2022-07-31T08:30:28;2.80;;;2.60;;
2386;SDS011;49473;50.772;8.768;2022-07-31T08:32:55;4.20;;;3.00;;
2386;SDS011;49473;50.772;8.768;2022-07-31T08:35:23;3.23;;;3.03;;
2386;SDS011;49473;50.772;8.768;2022-07-31T08:37:50;2.80;;;2.60;;
2386;SDS011;49473;50.772;8.768;2022-07-31T08:40:16;3.33;;;2.90;;
2386;SDS011;49473;50.772;8.768;2022-07-31T08:42:44;3.83;;;3.07;;
2386;SDS011;49473;50.772;8.768;2022-07-31T08:45:11;2.80;;;2.60;;
2386;SDS011;49473;50.772;8.768;2022-07-31T08:47:38;3.10;;;2.90;;
2386;SDS011;49473;50.772;8.768;2022-07-31T08:50:09;2.97;;;2.63;;
2386;SDS011;49473;50.772;8.768;2022-07-31T08:52:40;2.83;;;2.60;;
2386;SDS011;49473;50.772;8.768;2022-07-31T08:55:08;3.37;;;3.17;;
2386;SDS011;49473;50.772;8.768;2022-07-31T08:57:36;2.70;;;2.50;;
2386;SDS011;49473;50.772;8.768;2022-07-31T09:00:04;3.60;;;3.10;;
2386;SDS011;49473;50.772;8.768;2022-07-31T09:02:32;2.87;;;2.70;;
2386;SDS011;49473;50.772;8.768;2022-07-31T09:04:59;4.73;;;2.90;;
2386;SDS011;49473;50.772;8.768;2022-07-31T09:07:26;3.50;;;3.23;;
2386;SDS011;49473;50.772;8.768;2022-07-31T09:09:54;2.73;;;2.60;;
2386;SDS011;49473;50.772;8.768;2022-07-31T09:12:27;3.90;;;2.77;;
2386;SDS011;49473;50.772;8.768;2022-07-31T09:14:55;3.10;;;2.90;;
2386;SDS011;49473;50.772;8.768;2022-07-31T09:17:29;2.80;;;2.60;;
2386;SDS011;49473;50.772;8.768;2022-07-31T09:19:57;3.20;;;3.00;;
2386;SDS011;49473;50.772;8.768;2022-07-31T09:22:24;3.50;;;3.20;;
2386;SDS011;49473;50.772;8.768;2022-07-31T09:24:53;4.00;;;3.00;;
2386;SDS011;49473;50.772;8.768;2022-07-31T09:27:32;5.60;;;3.13;;
2386;SDS011;49473;50.772;8.768;2022-07-31T09:29:59;3.27;;;3.07;;
2386;SDS011;49473;50.772;8.768;2022-07-31T09:32:26;3.20;;;3.00;;
2386;SDS011;49473;50.772;8.768;2022-07-31T09:34:53;3.63;;;3.23;;
2386;SDS011;49473;50.772;8.768;2022-07-31T09:37:20;4.23;;;3.13;;
2386;SDS011;49473;50.772;8.768;2022-07-31T09:39:52;3.53;;;3.20;;
2386;SDS011;49473;50.772;8.768;2022-07-31T09:42:21;5.10;;;2.83;;
2386;SDS011;49473;50.772;8.768;2022-07-31T09:44:49;3.00;;;2.80;;
2386;SDS011;49473;50.772;8.768;2022-07-31T09:47:19;2.90;;;2.70;;
2386;SDS011;49473;50.772;8.768;2022-07-31T09:49:51;2.80;;;2.60;;
2386;SDS011;49473;50.772;8.768;2022-07-31T09:52:19;3.77;;;2.90;;
2386;SDS011;49473;50.772;8.768;2022-07-31T09:54:46;3.57;;;2.67;;
2386;SDS011;49473;50.772;8.768;2022-07-31T09:57:15;2.90;;;2.70;;
2386;SDS011;49473;50.772;8.768;2022-07-31T09:59:42;3.00;;;2.80;;
2386;SDS011;49473;50.772;8.768;2022-07-31T10:02:09;2.60;;;2.40;;
2386;SDS011;49473;50.772;8.768;2022-07-31T10:04:39;4.00;;;3.30;;
2386;SDS011;49473;50.772;8.768;2022-07-31T10:07:07;2.77;;;2.57;;
2386;SDS011;49473;50.772;8.768;2022-07-31T10:09:35;2.70;;;2.50;;
2386;SDS011;49473;50.772;8.768;2022-07-31T10:12:06;2.83;;;2.70;;
2386;SDS011;49473;50.772;8.768;2022-07-31T10:14:40;5.70;;;2.80;;
2386;SDS011;49473;50.772;8.768;2022-07-31T10:17:09;3.10;;;2.63;;
2386;SDS011;49473;50.772;8.768;2022-07-31T10:19:37;3.10;;;2.80;;
2386;SDS011;49473;50.772;8.768;2022-07-31T10:22:08;2.77;;;2.37;;
2386;SDS011;49473;50.772;8.768;2022-07-31T10:24:40;2.50;;;2.40;;
2386;SDS011;49473;50.772;8.768;2022-07-31T10:27:12;2.60;;;2.47;;
2386;SDS011;49473;50.772;8.768;2022-07-31T10:29:41;3.00;;;2.80;;
2386;SDS011;49473;50.772;8.768;2022-07-31T10:32:09;3.00;;;2.47;;
2386;SDS011;49473;50.772;8.768;2022-07-31T10:34:36;2.93;;;2.60;;
2386;SDS011;49473;50.772;8.768;2022-07-31T10:37:10;2.60;;;2.40;;
2386;SDS011;49473;50.772;8.768;2022-07-31T10:39:43;2.77;;;2.57;;
2386;SDS011;49473;50.772;8.768;2022-07-31T10:42:18;2.83;;;2.63;;
2386;SDS011;49473;50.772;8.768;2022-07-31T10:45:02;2.63;;;2.43;;
2386;SDS011;49473;50.772;8.768;2022-07-31T10:47:31;4.17;;;2.50;;
2386;SDS011;49473;50.772;8.768;2022-07-31T10:49:57;2.90;;;2.20;;
2386;SDS011;49473;50.772;8.768;2022-07-31T10:52:27;2.40;;;2.30;;
2386;SDS011;49473;50.772;8.768;2022-07-31T10:54:55;3.30;;;2.77;;
2386;SDS011;49473;50.772;8.768;2022-07-31T10:57:25;2.40;;;2.30;;
2386;SDS011;49473;50.772;8.768;2022-07-31T10:59:53;3.00;;;2.80;;
2386;SDS011;49473;50.772;8.768;2022-07-31T11:02:27;2.57;;;2.47;;
2386;SDS011;49473;50.772;8.768;2022-07-31T11:05:11;2.70;;;2.60;;
2386;SDS011;49473;50.772;8.768;2022-07-31T11:07:39;4.00;;;2.60;;
2386;SDS011;49473;50.772;8.768;2022-07-31T11:10:10;2.63;;;2.43;;
2386;SDS011;49473;50.772;8.768;2022-07-31T11:12:42;1.93;;;1.83;;
2386;SDS011;49473;50.772;8.768;2022-07-31T11:15:19;2.50;;;2.33;;
2386;SDS011;49473;50.772;8.768;2022-07-31T11:17:48;2.63;;;2.27;;
2386;SDS011;49473;50.772;8.768;2022-07-31T11:20:23;2.20;;;2.10;;
2386;SDS011;49473;50.772;8.768;2022-07-31T11:22:52;2.23;;;2.03;;
2386;SDS011;49473;50.772;8.768;2022-07-31T11:25:23;1.90;;;1.80;;
2386;SDS011;49473;50.772;8.768;2022-07-31T11:27:53;2.27;;;2.17;;
2386;SDS011;49473;50.772;8.768;2022-07-31T11:30:20;2.23;;;2.00;;
2386;SDS011;49473;50.772;8.768;2022-07-31T11:32:48;1.90;;;1.80;;
2386;SDS011;49473;50.772;8.768;2022-07-31T11:35:23;2.20;;;2.10;;
2386;SDS011;49473;50.772;8.768;2022-07-31T11:37:54;2.23;;;2.03;;
2386;SDS011;49473;50.772;8.768;2022-07-31T11:40:21;2.40;;;2.10;;
2386;SDS011;49473;50.772;8.768;2022-07-31T11:42:49;2.83;;;2.00;;
2386;SDS011;49473;50.772;8.768;2022-07-31T11:45:16;2.77;;;2.30;;
2386;SDS011;49473;50.772;8.768;2022-07-31T11:47:43;2.70;;;2.00;;
2386;SDS011;49473;50.772;8.768;2022-07-31T11:50:12;3.13;;;2.50;;
2386;SDS011;49473;50.772;8.768;2022-07-31T11:52:40;2.17;;;1.97;;
2386;SDS011;49473;50.772;8.768;2022-07-31T11:55:11;2.67;;;2.10;;
2386;SDS011;49473;50.772;8.768;2022-07-31T11:57:39;2.30;;;2.10;;
2386;SDS011;49473;50.772;8.768;2022-07-31T12:00:10;2.00;;;1.90;;
2386;SDS011;49473;50.772;8.768;2022-07-31T12:02:44;2.37;;;2.00;;
2386;SDS011;49473;50.772;8.768;2022-07-31T12:05:13;1.70;;;1.60;;
2386;SDS011;49473;50.772;8.768;2022-07-31T12:07:40;1.70;;;1.60;;
2386;SDS011;49473;50.772;8.768;2022-07-31T12:10:08;1.90;;;1.80;;
2386;SDS011;49473;50.772;8.768;2022-07-31T12:12:40;2.10;;;1.90;;
2386;SDS011;49473;50.772;8.768;2022-07-31T12:15:14;1.67;;;1.37;;
2386;SDS011;49473;50.772;8.768;2022-07-31T12:17:43;1.60;;;1.50;;
2386;SDS011;49473;50.772;8.768;2022-07-31T12:20:10;1.90;;;1.80;;
2386;SDS011;49473;50.772;8.768;2022-07-31T12:22:39;1.60;;;1.50;;
2386;SDS011;49473;50.772;8.768;2022-07-31T12:25:06;1.50;;;1.40;;
2386;SDS011;49473;50.772;8.768;2022-07-31T12:27:36;1.67;;;1.67;;
2386;SDS011;49473;50.772;8.768;2022-07-31T12:30:13;1.87;;;1.77;;
2386;SDS011;49473;50.772;8.768;2022-07-31T12:32:40;1.80;;;1.70;;
2386;SDS011;49473;50.772;8.768;2022-07-31T12:35:08;1.73;;;1.63;;
2386;SDS011;49473;50.772;8.768;2022-07-31T12:37:42;2.47;;;1.67;;
2386;SDS011;49473;50.772;8.768;2022-07-31T12:40:20;1.73;;;1.63;;
2386;SDS011;49473;50.772;8.768;2022-07-31T12:42:47;1.70;;;1.60;;
2386;SDS011;49473;50.772;8.768;2022-07-31T12:45:14;1.60;;;1.50;;
2386;SDS011;49473;50.772;8.768;2022-07-31T12:47:41;2.03;;;1.93;;
2386;SDS011;49473;50.772;8.768;2022-07-31T12:50:09;1.90;;;1.80;;
2386;SDS011;49473;50.772;8.768;2022-07-31T12:52:35;2.50;;;1.60;;
2386;SDS011;49473;50.772;8.768;2022-07-31T12:55:04;1.40;;;1.30;;
2386;SDS011;49473;50.772;8.768;2022-07-31T12:57:31;4.93;;;1.43;;
2386;SDS011;49473;50.772;8.768;2022-07-31T12:59:57;1.47;;;1.47;;
2386;SDS011;49473;50.772;8.768;2022-07-31T13:02:24;1.70;;;1.60;;
2386;SDS011;49473;50.772;8.768;2022-07-31T13:04:51;2.30;;;1.43;;
2386;SDS011;49473;50.772;8.768;2022-07-31T13:07:17;2.00;;;1.77;;
2386;SDS011;49473;50.772;8.768;2022-07-31T13:09:44;2.13;;;1.77;;
2386;SDS011;49473;50.772;8.768;2022-07-31T13:12:13;1.70;;;1.60;;
2386;SDS011;49473;50.772;8.768;2022-07-31T13:14:40;1.70;;;1.43;;
2386;SDS011;49473;50.772;8.768;2022-07-31T13:17:07;2.10;;;1.57;;
2386;SDS011;49473;50.772;8.768;2022-07-31T13:19:33;2.93;;;1.83;;
2386;SDS011;49473;50.772;8.768;2022-07-31T13:22:00;1.87;;;1.77;;
2386;SDS011;49473;50.772;8.768;2022-07-31T13:24:27;2.80;;;1.47;;
2386;SDS011;49473;50.772;8.768;2022-07-31T13:26:54;1.73;;;1.63;;
2386;SDS011;49473;50.772;8.768;2022-07-31T13:29:24;3.20;;;1.77;;
2386;SDS011;49473;50.772;8.768;2022-07-31T13:31:50;1.77;;;1.67;;
2386;SDS011;49473;50.772;8.768;2022-07-31T13:34:17;1.23;;;1.20;;
2386;SDS011;49473;50.772;8.768;2022-07-31T13:36:44;1.70;;;1.60;;
2386;SDS011;49473;50.772;8.768;2022-07-31T13:39:11;1.87;;;1.77;;
2386;SDS011;49473;50.772;8.768;2022-07-31T13:41:38;1.97;;;1.87;;
2386;SDS011;49473;50.772;8.768;2022-07-31T13:44:05;1.80;;;1.70;;
2386;SDS011;49473;50.772;8.768;2022-07-31T13:46:34;1.70;;;1.60;;
2386;SDS011;49473;50.772;8.768;2022-07-31T13:49:02;1.73;;;1.43;;
2386;SDS011;49473;50.772;8.768;2022-07-31T13:51:32;1.70;;;1.60;;
2386;SDS011;49473;50.772;8.768;2022-07-31T13:53:58;1.80;;;1.70;;
2386;SDS011;49473;50.772;8.768;2022-07-31T13:56:25;1.70;;;1.60;;
2386;SDS011;49473;50.772;8.768;2022-07-31T13:58:52;1.73;;;1.63;;
2386;SDS011;49473;50.772;8.768;2022-07-31T14:01:19;2.20;;;2.00;;
2386;SDS011;49473;50.772;8.768;2022-07-31T14:03:48;1.73;;;1.63;;
2386;SDS011;49473;50.772;8.768;2022-07-31T14:06:14;2.07;;;1.97;;
2386;SDS011;49473;50.772;8.768;2022-07-31T14:08:41;2.20;;;2.00;;
2386;SDS011;49473;50.772;8.768;2022-07-31T14:11:08;2.00;;;1.80;;
2386;SDS011;49473;50.772;8.768;2022-07-31T14:13:34;2.63;;;1.77;;
2386;SDS011;49473;50.772;8.768;2022-07-31T14:16:01;2.70;;;2.13;;
2386;SDS011;49473;50.772;8.768;2022-07-31T14:18:29;1.50;;;1.50;;
2386;SDS011;49473;50.772;8.768;2022-07-31T14:20:57;2.20;;;2.00;;
2386;SDS011;49473;50.772;8.768;2022-07-31T14:23:24;1.90;;;1.80;;
2386;SDS011;49473;50.772;8.768;2022-07-31T14:25:51;3.70;;;1.83;;
2386;SDS011;49473;50.772;8.768;2022-07-31T14:28:18;3.70;;;2.10;;
2386;SDS011;49473;50.772;8.768;2022-07-31T14:30:44;2.17;;;1.90;;
2386;SDS011;49473;50.772;8.768;2022-07-31T14:33:11;2.00;;;1.83;;
2386;SDS011;49473;50.772;8.768;2022-07-31T14:35:38;3.00;;;2.00;;
2386;SDS011;49473;50.772;8.768;2022-07-31T14:38:07;2.80;;;2.60;;
2386;SDS011;49473;50.772;8.768;2022-07-31T14:40:34;2.70;;;1.60;;
2386;SDS011;49473;50.772;8.768;2022-07-31T14:43:01;2.17;;;2.07;;
2386;SDS011;49473;50.772;8.768;2022-07-31T14:45:28;1.70;;;1.60;;
2386;SDS011;49473;50.772;8.768;2022-07-31T14:47:54;2.00;;;1.90;;
2386;SDS011;49473;50.772;8.768;2022-07-31T14:50:21;1.67;;;1.57;;
2386;SDS011;49473;50.772;8.768;2022-07-31T14:52:48;2.00;;;1.90;;
2386;SDS011;49473;50.772;8.768;2022-07-31T14:55:16;1.90;;;1.80;;
2386;SDS011;49473;50.772;8.768;2022-07-31T14:57:43;2.43;;;2.20;;
2386;SDS011;49473;50.772;8.768;2022-07-31T15:00:10;2.17;;;2.07;;
2386;SDS011;49473;50.772;8.768;2022-07-31T15:02:38;2.20;;;2.00;;
2386;SDS011;49473;50.772;8.768;2022-07-31T15:05:05;2.00;;;1.90;;
2386;SDS011;49473;50.772;8.768;2022-07-31T15:07:32;2.80;;;2.70;;